John H. — WAC6768 — position and weather

sailwx.info

Track history (hours):
 
Tides and Currents Weather Stations Pressure Air Temp Water Temp Dewpoint Dewpoint Depression Visibility Wind Speed Wind Dir Waves Ship Positions

John H.

Owner: CROSS SOUND FERRY SERVICE INC, NEW LOUDON, CT. More information available from US FCC via Universal Licensing System and Coast Guard Vessel Documentation Center.

Last reported at 2015-Apr-21 20:33 UTC. Time now 2015-Apr-21 21:10 UTC.
Position N 41°09' W 072°14'.

Length 70 m.

Type: Passenger vessel. MMSI: 366934890.

Date/timePositionNaut miles runAvg speedWind from/ knotsBaromVisibWave heightAir tempDewpointWater temp
2015-Apr-21 20:33N 41°09' W 072°14'1010.0
2015-Apr-21 19:33N 41°17' W 072°06'4 4.3
2015-Apr-21 18:34N 41°21' W 072°06'9 9.0
2015-Apr-21 17:33N 41°13' W 072°10'5 5.1
2015-Apr-21 16:33N 41°09' W 072°14'8 8.1
2015-Apr-21 15:34N 41°16' W 072°08'6 6.0
2015-Apr-21 14:33N 41°21' W 072°06'9 9.1
2015-Apr-21 13:34N 41°13' W 072°10'5 4.9
2015-Apr-21 12:33N 41°09' W 072°14'9 8.8
2015-Apr-21 11:34N 41°16' W 072°07'5 5.3
2015-Apr-21 10:34N 41°21' W 072°06'0 0.0
2015-Apr-21 00:31N 41°21' W 072°06'9 8.9
2015-Apr-20 23:34N 41°14' W 072°11'5 5.2
2015-Apr-20 22:33N 41°09' W 072°14'9 9.0
2015-Apr-20 21:33N 41°16' W 072°06'5 5.4
2015-Apr-20 20:33N 41°21' W 072°06'8 8.4
2015-Apr-20 19:34N 41°14' W 072°11'5 5.5
2015-Apr-20 18:33N 41°09' W 072°14'9 9.2
2015-Apr-20 17:34N 41°16' W 072°06'5 5.2
2015-Apr-20 16:33N 41°21' W 072°05'10 9.8
2015-Apr-20 15:33N 41°13' W 072°12'4 4.0
2015-Apr-20 14:34N 41°09' W 072°14'8 7.9
2015-Apr-20 13:33N 41°16' W 072°08'6 6.1
2015-Apr-20 12:33N 41°21' W 072°06'9 9.1
2015-Apr-20 11:34N 41°13' W 072°10'5 4.9
2015-Apr-20 10:33N 41°09' W 072°14'0 0.0
2015-Apr-20 01:33N 41°09' W 072°14'8 8.3
2015-Apr-20 00:33N 41°16' W 072°07'6 5.8
2015-Apr-19 23:33N 41°21' W 072°06'9 8.6
2015-Apr-19 22:33N 41°13' W 072°10'5 5.4
2015-Apr-19 21:34N 41°09' W 072°14'9 8.6
2015-Apr-19 20:34N 41°16' W 072°07'6 5.5
2015-Apr-19 19:33N 41°21' W 072°06'8 8.4
2015-Apr-19 18:33N 41°13' W 072°10'6 5.6
2015-Apr-19 17:33N 41°09' W 072°14'8 8.4
2015-Apr-19 16:33N 41°16' W 072°08'6 5.6
2015-Apr-19 15:33N 41°21' W 072°06'9 8.8
2015-Apr-19 14:33N 41°13' W 072°10'5 5.1
2015-Apr-19 13:33N 41°09' W 072°14'8 7.8
2015-Apr-19 12:34N 41°15' W 072°08'6 6.2
2015-Apr-19 11:34N 41°21' W 072°06'0 0.0
2015-Apr-19 00:26N 41°21' W 072°06'8 9.7
2015-Apr-18 23:34N 41°14' W 072°10'6 5.5
2015-Apr-18 22:33N 41°09' W 072°14'8 8.4
2015-Apr-18 21:34N 41°16' W 072°08'6 5.6
2015-Apr-18 20:33N 41°21' W 072°06'9 9.1
2015-Apr-18 19:33N 41°13' W 072°10'5 4.8
2015-Apr-18 18:33N 41°09' W 072°14'9 8.9
2015-Apr-18 17:33N 41°16' W 072°06'6 5.8
2015-Apr-18 16:33N 41°21' W 072°06'8 8.4
2015-Apr-18 15:34N 41°14' W 072°10'6 5.6
2015-Apr-18 14:33N 41°09' W 072°14'8 8.1
2015-Apr-18 13:34N 41°16' W 072°08'6 5.9
2015-Apr-18 12:34N 41°21' W 072°06'9 8.8
2015-Apr-18 11:34N 41°13' W 072°10'5 5.2
2015-Apr-18 10:34N 41°09' W 072°14'0 0.0
2015-Apr-18 00:29N 41°09' W 072°14'9 9.7
2015-Apr-17 23:33N 41°16' W 072°07'5 5.2
2015-Apr-17 22:33N 41°21' W 072°06'10 9.8
2015-Apr-17 21:33N 41°13' W 072°11'4 3.6
2015-Apr-17 20:33N 41°09' W 072°14'9 9.4
2015-Apr-17 19:33N 41°16' W 072°05'5 5.0
2015-Apr-17 18:34N 41°21' W 072°06'9 8.7
2015-Apr-17 17:33N 41°13' W 072°10'5 5.4
2015-Apr-17 16:33N 41°09' W 072°14'8 8.3
2015-Apr-17 15:33N 41°16' W 072°07'6 5.8
2015-Apr-17 14:34N 41°21' W 072°06'9 9.4
2015-Apr-17 13:33N 41°13' W 072°11'4 4.5
2015-Apr-17 12:33N 41°09' W 072°14'9 9.2
2015-Apr-17 11:33N 41°16' W 072°07'5 5.1
2015-Apr-17 10:33N 41°21' W 072°06'0 0.0
2015-Apr-17 00:24N 41°21' W 072°05'910.8
2015-Apr-16 23:34N 41°13' W 072°10'5 4.8
2015-Apr-16 22:34N 41°09' W 072°14'9 8.8
2015-Apr-16 21:33N 41°16' W 072°07'6 5.6
2015-Apr-16 20:33N 41°21' W 072°06'8 8.4
2015-Apr-16 19:34N 41°14' W 072°10'6 5.6
2015-Apr-16 18:33N 41°09' W 072°14'9 8.8
2015-Apr-16 17:34N 41°16' W 072°07'5 5.3
2015-Apr-16 16:33N 41°21' W 072°06'9 8.7
2015-Apr-16 15:33N 41°13' W 072°10'5 5.3
2015-Apr-16 14:34N 41°09' W 072°14'8 8.5
2015-Apr-16 13:34N 41°16' W 072°08'6 5.6
2015-Apr-16 12:34N 41°21' W 072°06'9 8.8
2015-Apr-16 11:33N 41°13' W 072°10'5 0.5
2015-Apr-16 00:21N 41°09' W 072°14'810.2
2015-Apr-15 23:33N 41°16' W 072°08'6 5.9
2015-Apr-15 22:33N 41°21' W 072°06'8 8.4
2015-Apr-15 21:33N 41°14' W 072°10'6 5.5
2015-Apr-15 20:34N 41°09' W 072°14'7 7.4
2015-Apr-15 19:34N 41°15' W 072°09'7 6.6
2015-Apr-15 18:33N 41°21' W 072°06'9 8.8
2015-Apr-15 17:34N 41°13' W 072°10'5 5.2
2015-Apr-15 16:33N 41°09' W 072°14'8 8.1
2015-Apr-15 15:33N 41°16' W 072°08'6 6.0
2015-Apr-15 14:33N 41°21' W 072°06'9 8.9
2015-Apr-15 13:34N 41°13' W 072°10'5 5.0
2015-Apr-15 12:33N 41°09' W 072°14'8 8.0
2015-Apr-15 11:34N 41°16' W 072°08'6 6.0
2015-Apr-15 10:33N 41°21' W 072°06'0 0.0
2015-Apr-15 00:23N 41°21' W 072°06'810.0
2015-Apr-14 23:33N 41°14' W 072°10'6 5.8
2015-Apr-14 22:34N 41°09' W 072°14'8 8.2
2015-Apr-14 21:33N 41°16' W 072°08'6 5.8
2015-Apr-14 20:33N 41°21' W 072°06'9 8.7
2015-Apr-14 19:33N 41°13' W 072°10'5 5.3
2015-Apr-14 18:33N 41°09' W 072°14'8 8.3
2015-Apr-14 17:33N 41°16' W 072°08'6 5.8
2015-Apr-14 16:34N 41°21' W 072°06'8 8.5
2015-Apr-14 15:34N 41°14' W 072°10'6 5.5
2015-Apr-14 14:34N 41°09' W 072°14'8 7.9
2015-Apr-14 13:33N 41°16' W 072°08'6 6.1
2015-Apr-14 12:33N 41°21' W 072°06'8 8.5
2015-Apr-14 11:34N 41°13' W 072°10'6 5.5
2015-Apr-14 10:33N 41°09' W 072°14'0 0.0
2015-Apr-14 00:25N 41°09' W 072°14'8 9.6
2015-Apr-13 23:33N 41°16' W 072°08'6 5.8
2015-Apr-13 22:33N 41°21' W 072°06'9 9.1
2015-Apr-13 21:33N 41°13' W 072°11'5 4.8
2015-Apr-13 20:34N 41°09' W 072°14'9 9.0
2015-Apr-13 19:33N 41°16' W 072°07'5 5.1
2015-Apr-13 18:33N 41°21' W 072°06'8 8.4
2015-Apr-13 17:33N 41°14' W 072°10'6 5.6
2015-Apr-13 16:33N 41°09' W 072°14'8 7.9
2015-Apr-13 15:33N 41°16' W 072°08'6 6.1
2015-Apr-13 14:33N 41°21' W 072°06'9 8.8
2015-Apr-13 13:33N 41°13' W 072°10'5 5.2
2015-Apr-13 12:33N 41°09' W 072°14'9 8.7
2015-Apr-13 11:33N 41°16' W 072°07'5 5.5
2015-Apr-13 10:33N 41°21' W 072°06'0 0.0
2015-Apr-13 00:22N 41°21' W 072°06'8 9.9
2015-Apr-12 23:33N 41°14' W 072°09'6 6.1
2015-Apr-12 22:33N 41°09' W 072°14'9 8.9
2015-Apr-12 21:33N 41°16' W 072°07'5 5.2
2015-Apr-12 20:33N 41°21' W 072°06'9 8.7
2015-Apr-12 19:33N 41°13' W 072°10'5 5.2
2015-Apr-12 18:34N 41°09' W 072°14'8 7.9
2015-Apr-12 17:34N 41°16' W 072°08'6 6.1
2015-Apr-12 16:33N 41°21' W 072°06'9 9.0
2015-Apr-12 15:33N 41°13' W 072°10'5 5.0
2015-Apr-12 14:33N 41°09' W 072°14'9 9.5
2015-Apr-12 13:33N 41°17' W 072°07'5 4.8
2015-Apr-12 12:34N 41°21' W 072°06'8 8.4
2015-Apr-12 11:33N 41°13' W 072°10'6 5.6
2015-Apr-12 10:33N 41°09' W 072°14'0 0.0
2015-Apr-12 00:23N 41°09' W 072°14'8 9.4
2015-Apr-11 23:33N 41°15' W 072°08'6 6.2
2015-Apr-11 22:33N 41°21' W 072°06'9 8.7
2015-Apr-11 21:34N 41°13' W 072°10'5 5.2
2015-Apr-11 20:34N 41°09' W 072°14'  
Track history (hours):
 
Tides and Currents Weather Stations Pressure Air Temp Water Temp Dewpoint Dewpoint Depression Visibility Wind Speed Wind Dir Waves Ship Positions

John H.

Owner: CROSS SOUND FERRY SERVICE INC, NEW LOUDON, CT. More information available from US FCC via Universal Licensing System and Coast Guard Vessel Documentation Center.

Last reported at 2015-Apr-21 20:33 UTC. Time now 2015-Apr-21 21:10 UTC.
Position N 41°09' W 072°14'.

Length 70 m.

Type: Passenger vessel. MMSI: 366934890.

Date/timePositionNaut miles runAvg speedWind from/ knotsBaromVisibWave heightAir tempDewpointWater temp
2015-Apr-21 20:33N 41°09' W 072°14'1010.0
2015-Apr-21 19:33N 41°17' W 072°06'4 4.3
2015-Apr-21 18:34N 41°21' W 072°06'9 9.0
2015-Apr-21 17:33N 41°13' W 072°10'5 5.1
2015-Apr-21 16:33N 41°09' W 072°14'8 8.1
2015-Apr-21 15:34N 41°16' W 072°08'6 6.0
2015-Apr-21 14:33N 41°21' W 072°06'9 9.1
2015-Apr-21 13:34N 41°13' W 072°10'5 4.9
2015-Apr-21 12:33N 41°09' W 072°14'9 8.8
2015-Apr-21 11:34N 41°16' W 072°07'5 5.3
2015-Apr-21 10:34N 41°21' W 072°06'0 0.0
2015-Apr-21 00:31N 41°21' W 072°06'9 8.9
2015-Apr-20 23:34N 41°14' W 072°11'5 5.2
2015-Apr-20 22:33N 41°09' W 072°14'9 9.0
2015-Apr-20 21:33N 41°16' W 072°06'5 5.4
2015-Apr-20 20:33N 41°21' W 072°06'8 8.4
2015-Apr-20 19:34N 41°14' W 072°11'5 5.5
2015-Apr-20 18:33N 41°09' W 072°14'9 9.2
2015-Apr-20 17:34N 41°16' W 072°06'5 5.2
2015-Apr-20 16:33N 41°21' W 072°05'10 9.8
2015-Apr-20 15:33N 41°13' W 072°12'4 4.0
2015-Apr-20 14:34N 41°09' W 072°14'8 7.9
2015-Apr-20 13:33N 41°16' W 072°08'6 6.1
2015-Apr-20 12:33N 41°21' W 072°06'9 9.1
2015-Apr-20 11:34N 41°13' W 072°10'5 4.9
2015-Apr-20 10:33N 41°09' W 072°14'0 0.0
2015-Apr-20 01:33N 41°09' W 072°14'8 8.3
2015-Apr-20 00:33N 41°16' W 072°07'6 5.8
2015-Apr-19 23:33N 41°21' W 072°06'9 8.6
2015-Apr-19 22:33N 41°13' W 072°10'5 5.4
2015-Apr-19 21:34N 41°09' W 072°14'9 8.6
2015-Apr-19 20:34N 41°16' W 072°07'6 5.5
2015-Apr-19 19:33N 41°21' W 072°06'8 8.4
2015-Apr-19 18:33N 41°13' W 072°10'6 5.6
2015-Apr-19 17:33N 41°09' W 072°14'8 8.4
2015-Apr-19 16:33N 41°16' W 072°08'6 5.6
2015-Apr-19 15:33N 41°21' W 072°06'9 8.8
2015-Apr-19 14:33N 41°13' W 072°10'5 5.1
2015-Apr-19 13:33N 41°09' W 072°14'8 7.8
2015-Apr-19 12:34N 41°15' W 072°08'6 6.2
2015-Apr-19 11:34N 41°21' W 072°06'0 0.0
2015-Apr-19 00:26N 41°21' W 072°06'8 9.7
2015-Apr-18 23:34N 41°14' W 072°10'6 5.5
2015-Apr-18 22:33N 41°09' W 072°14'8 8.4
2015-Apr-18 21:34N 41°16' W 072°08'6 5.6
2015-Apr-18 20:33N 41°21' W 072°06'9 9.1
2015-Apr-18 19:33N 41°13' W 072°10'5 4.8
2015-Apr-18 18:33N 41°09' W 072°14'9 8.9
2015-Apr-18 17:33N 41°16' W 072°06'6 5.8
2015-Apr-18 16:33N 41°21' W 072°06'8 8.4
2015-Apr-18 15:34N 41°14' W 072°10'6 5.6
2015-Apr-18 14:33N 41°09' W 072°14'8 8.1
2015-Apr-18 13:34N 41°16' W 072°08'6 5.9
2015-Apr-18 12:34N 41°21' W 072°06'9 8.8
2015-Apr-18 11:34N 41°13' W 072°10'5 5.2
2015-Apr-18 10:34N 41°09' W 072°14'0 0.0
2015-Apr-18 00:29N 41°09' W 072°14'9 9.7
2015-Apr-17 23:33N 41°16' W 072°07'5 5.2
2015-Apr-17 22:33N 41°21' W 072°06'10 9.8
2015-Apr-17 21:33N 41°13' W 072°11'4 3.6
2015-Apr-17 20:33N 41°09' W 072°14'9 9.4
2015-Apr-17 19:33N 41°16' W 072°05'5 5.0
2015-Apr-17 18:34N 41°21' W 072°06'9 8.7
2015-Apr-17 17:33N 41°13' W 072°10'5 5.4
2015-Apr-17 16:33N 41°09' W 072°14'8 8.3
2015-Apr-17 15:33N 41°16' W 072°07'6 5.8
2015-Apr-17 14:34N 41°21' W 072°06'9 9.4
2015-Apr-17 13:33N 41°13' W 072°11'4 4.5
2015-Apr-17 12:33N 41°09' W 072°14'9 9.2
2015-Apr-17 11:33N 41°16' W 072°07'5 5.1
2015-Apr-17 10:33N 41°21' W 072°06'0 0.0
2015-Apr-17 00:24N 41°21' W 072°05'910.8
2015-Apr-16 23:34N 41°13' W 072°10'5 4.8
2015-Apr-16 22:34N 41°09' W 072°14'9 8.8
2015-Apr-16 21:33N 41°16' W 072°07'6 5.6
2015-Apr-16 20:33N 41°21' W 072°06'8 8.4
2015-Apr-16 19:34N 41°14' W 072°10'6 5.6
2015-Apr-16 18:33N 41°09' W 072°14'9 8.8
2015-Apr-16 17:34N 41°16' W 072°07'5 5.3
2015-Apr-16 16:33N 41°21' W 072°06'9 8.7
2015-Apr-16 15:33N 41°13' W 072°10'5 5.3
2015-Apr-16 14:34N 41°09' W 072°14'8 8.5
2015-Apr-16 13:34N 41°16' W 072°08'6 5.6
2015-Apr-16 12:34N 41°21' W 072°06'9 8.8
2015-Apr-16 11:33N 41°13' W 072°10'5 0.5
2015-Apr-16 00:21N 41°09' W 072°14'810.2
2015-Apr-15 23:33N 41°16' W 072°08'6 5.9
2015-Apr-15 22:33N 41°21' W 072°06'8 8.4
2015-Apr-15 21:33N 41°14' W 072°10'6 5.5
2015-Apr-15 20:34N 41°09' W 072°14'7 7.4
2015-Apr-15 19:34N 41°15' W 072°09'7 6.6
2015-Apr-15 18:33N 41°21' W 072°06'9 8.8
2015-Apr-15 17:34N 41°13' W 072°10'5 5.2
2015-Apr-15 16:33N 41°09' W 072°14'8 8.1
2015-Apr-15 15:33N 41°16' W 072°08'6 6.0
2015-Apr-15 14:33N 41°21' W 072°06'9 8.9
2015-Apr-15 13:34N 41°13' W 072°10'5 5.0
2015-Apr-15 12:33N 41°09' W 072°14'8 8.0
2015-Apr-15 11:34N 41°16' W 072°08'6 6.0
2015-Apr-15 10:33N 41°21' W 072°06'0 0.0
2015-Apr-15 00:23N 41°21' W 072°06'810.0
2015-Apr-14 23:33N 41°14' W 072°10'6 5.8
2015-Apr-14 22:34N 41°09' W 072°14'8 8.2
2015-Apr-14 21:33N 41°16' W 072°08'6 5.8
2015-Apr-14 20:33N 41°21' W 072°06'9 8.7
2015-Apr-14 19:33N 41°13' W 072°10'5 5.3
2015-Apr-14 18:33N 41°09' W 072°14'8 8.3
2015-Apr-14 17:33N 41°16' W 072°08'6 5.8
2015-Apr-14 16:34N 41°21' W 072°06'8 8.5
2015-Apr-14 15:34N 41°14' W 072°10'6 5.5
2015-Apr-14 14:34N 41°09' W 072°14'8 7.9
2015-Apr-14 13:33N 41°16' W 072°08'6 6.1
2015-Apr-14 12:33N 41°21' W 072°06'8 8.5
2015-Apr-14 11:34N 41°13' W 072°10'6 5.5
2015-Apr-14 10:33N 41°09' W 072°14'0 0.0
2015-Apr-14 00:25N 41°09' W 072°14'8 9.6
2015-Apr-13 23:33N 41°16' W 072°08'6 5.8
2015-Apr-13 22:33N 41°21' W 072°06'9 9.1
2015-Apr-13 21:33N 41°13' W 072°11'5 4.8
2015-Apr-13 20:34N 41°09' W 072°14'9 9.0
2015-Apr-13 19:33N 41°16' W 072°07'5 5.1
2015-Apr-13 18:33N 41°21' W 072°06'8 8.4
2015-Apr-13 17:33N 41°14' W 072°10'6 5.6
2015-Apr-13 16:33N 41°09' W 072°14'8 7.9
2015-Apr-13 15:33N 41°16' W 072°08'6 6.1
2015-Apr-13 14:33N 41°21' W 072°06'9 8.8
2015-Apr-13 13:33N 41°13' W 072°10'5 5.2
2015-Apr-13 12:33N 41°09' W 072°14'9 8.7
2015-Apr-13 11:33N 41°16' W 072°07'5 5.5
2015-Apr-13 10:33N 41°21' W 072°06'0 0.0
2015-Apr-13 00:22N 41°21' W 072°06'8 9.9
2015-Apr-12 23:33N 41°14' W 072°09'6 6.1
2015-Apr-12 22:33N 41°09' W 072°14'9 8.9
2015-Apr-12 21:33N 41°16' W 072°07'5 5.2
2015-Apr-12 20:33N 41°21' W 072°06'9 8.7
2015-Apr-12 19:33N 41°13' W 072°10'5 5.2
2015-Apr-12 18:34N 41°09' W 072°14'8 7.9
2015-Apr-12 17:34N 41°16' W 072°08'6 6.1
2015-Apr-12 16:33N 41°21' W 072°06'9 9.0
2015-Apr-12 15:33N 41°13' W 072°10'5 5.0
2015-Apr-12 14:33N 41°09' W 072°14'9 9.5
2015-Apr-12 13:33N 41°17' W 072°07'5 4.8
2015-Apr-12 12:34N 41°21' W 072°06'8 8.4
2015-Apr-12 11:33N 41°13' W 072°10'6 5.6
2015-Apr-12 10:33N 41°09' W 072°14'0 0.0
2015-Apr-12 00:23N 41°09' W 072°14'8 9.4
2015-Apr-11 23:33N 41°15' W 072°08'6 6.2
2015-Apr-11 22:33N 41°21' W 072°06'9 8.7
2015-Apr-11 21:34N 41°13' W 072°10'5 5.2
2015-Apr-11 20:34N 41°09' W 072°14'  

Dump ship's entire track history